createdAt,value
2019-03-05T00:00:43.027Z,18.52
2019-03-05T00:03:11.618Z,20.90
2019-03-05T00:05:40.210Z,11.20
2019-03-05T00:08:08.838Z,13.53
2019-03-05T00:10:37.434Z,19.52
2019-03-05T00:13:06.030Z,12.78
2019-03-05T00:15:34.739Z,16.37
2019-03-05T00:18:03.338Z,16.95
2019-03-05T00:20:31.859Z,18.07
2019-03-05T00:23:00.454Z,14.30
2019-03-05T00:25:36.865Z,9.88
2019-03-05T00:28:14.339Z,12.73
2019-03-05T00:30:46.147Z,12.68
2019-03-05T00:33:34.378Z,15.43
2019-03-05T00:36:11.952Z,13.62
2019-03-05T00:39:15.073Z,16.07
2019-03-05T00:42:06.343Z,16.37
2019-03-05T00:45:02.058Z,15.35
2019-03-05T00:47:39.372Z,15.30
2019-03-05T00:50:41.065Z,18.20
2019-03-05T00:53:18.207Z,18.85
2019-03-05T00:56:04.976Z,23.15
2019-03-05T00:58:45.437Z,19.67
2019-03-05T01:01:17.023Z,16.17
2019-03-05T01:03:48.711Z,17.67
2019-03-05T01:06:25.151Z,14.93
2019-03-05T01:08:56.154Z,15.28
2019-03-05T01:11:25.232Z,14.95
2019-03-05T01:13:53.857Z,15.10
2019-03-05T01:16:33.342Z,15.97
2019-03-05T01:19:02.137Z,23.95
2019-03-05T01:21:30.743Z,18.75
2019-03-05T01:23:59.366Z,17.62
2019-03-05T01:26:28.299Z,18.20
2019-03-05T01:28:57.005Z,15.13
2019-03-05T01:31:36.310Z,20.55
2019-03-05T01:34:09.422Z,10.98
2019-03-05T01:36:45.645Z,12.23
2019-03-05T01:39:18.479Z,18.20
2019-03-05T01:41:47.075Z,14.95
2019-03-05T01:44:15.736Z,18.62
2019-03-05T01:46:44.299Z,13.10
2019-03-05T01:49:12.888Z,11.07
2019-03-05T01:51:41.484Z,15.75
2019-03-05T01:54:10.111Z,10.53
2019-03-05T01:56:38.804Z,20.33
2019-03-05T01:59:07.403Z,14.53
2019-03-05T02:01:36.000Z,9.43
2019-03-05T02:04:04.890Z,16.67
2019-03-05T02:06:33.508Z,12.17
2019-03-05T02:09:02.096Z,9.30
2019-03-05T02:11:30.867Z,21.73
2019-03-05T02:13:59.490Z,11.20
2019-03-05T02:16:28.111Z,12.37
2019-03-05T02:19:16.399Z,12.40
2019-03-05T02:21:44.919Z,12.40
2019-03-05T02:24:42.014Z,9.40
2019-03-05T02:27:18.661Z,6.97
2019-03-05T02:29:52.752Z,6.33
2019-03-05T02:35:02.361Z,9.53
2019-03-05T02:37:45.497Z,8.70
2019-03-05T02:40:25.989Z,9.60
2019-03-05T02:42:57.493Z,7.15
2019-03-05T02:45:31.915Z,5.03
2019-03-05T02:48:11.982Z,4.75
2019-03-05T02:51:05.577Z,4.53
2019-03-05T02:53:45.454Z,4.67
2019-03-05T02:56:20.022Z,3.37
2019-03-05T02:58:47.346Z,4.03
2019-03-05T03:01:20.836Z,5.17
2019-03-05T03:03:51.071Z,5.37
2019-03-05T03:06:21.390Z,6.03
2019-03-05T03:08:51.554Z,7.30
2019-03-05T03:11:20.143Z,7.63
2019-03-05T03:13:48.884Z,10.43
2019-03-05T03:16:17.473Z,9.50
2019-03-05T03:18:46.126Z,12.20
2019-03-05T03:21:14.726Z,10.10
2019-03-05T03:23:43.371Z,10.83
2019-03-05T03:26:11.935Z,9.70
2019-03-05T03:28:40.527Z,12.30
2019-03-05T03:31:09.042Z,8.73
2019-03-05T03:33:37.570Z,13.45
2019-03-05T03:36:06.161Z,8.03
2019-03-05T03:38:34.778Z,11.87
2019-03-05T03:41:03.502Z,8.78
2019-03-05T03:43:32.086Z,7.90
2019-03-05T03:46:00.675Z,9.48
2019-03-05T03:48:29.273Z,11.05
2019-03-05T03:50:57.800Z,13.45
2019-03-05T03:53:26.604Z,9.73
2019-03-05T03:55:55.204Z,13.08
2019-03-05T03:58:23.897Z,7.80
2019-03-05T04:00:52.595Z,9.83
2019-03-05T04:03:21.379Z,10.53
2019-03-05T04:05:49.986Z,13.08
2019-03-05T04:08:18.769Z,5.62
2019-03-05T04:10:47.367Z,13.30
2019-03-05T04:13:16.055Z,11.25
2019-03-05T04:15:44.653Z,11.68
2019-03-05T04:18:13.196Z,12.20
2019-03-05T04:20:43.460Z,10.73
2019-03-05T04:23:12.058Z,10.95
2019-03-05T04:25:40.646Z,9.30
2019-03-05T04:28:09.244Z,12.07
2019-03-05T04:30:37.832Z,9.03
2019-03-05T04:33:06.453Z,11.55
2019-03-05T04:35:35.091Z,10.90
2019-03-05T04:38:03.794Z,10.78
2019-03-05T04:40:32.495Z,9.53
2019-03-05T04:43:01.081Z,8.30
2019-03-05T04:45:42.560Z,6.50
2019-03-05T04:48:11.222Z,12.73
2019-03-05T04:50:50.580Z,9.13
2019-03-05T04:53:19.342Z,9.30
2019-03-05T04:55:48.046Z,8.25
2019-03-05T04:58:16.573Z,8.60
2019-03-05T05:00:45.165Z,13.50
2019-03-05T05:03:13.753Z,10.18
2019-03-05T05:05:42.347Z,8.80
2019-03-05T05:08:10.870Z,7.87
2019-03-05T05:10:39.463Z,10.68
2019-03-05T05:13:08.096Z,11.70
2019-03-05T05:15:36.693Z,9.98
2019-03-05T05:18:05.402Z,9.70
2019-03-05T05:20:34.018Z,11.17
2019-03-05T05:23:02.599Z,10.98
2019-03-05T05:25:31.185Z,11.30
2019-03-05T05:27:59.641Z,6.80
2019-03-05T05:30:34.976Z,13.90
2019-03-05T05:33:03.901Z,9.90
2019-03-05T05:35:32.591Z,10.98
2019-03-05T05:38:01.176Z,8.70
2019-03-05T05:40:44.206Z,11.22
2019-03-05T05:43:18.246Z,9.05
2019-03-05T05:45:48.547Z,7.70
2019-03-05T05:48:17.469Z,13.75
2019-03-05T05:50:46.057Z,11.43
2019-03-05T05:53:14.688Z,12.43
2019-03-05T05:55:43.281Z,12.80
2019-03-05T05:58:11.980Z,11.22
2019-03-05T06:00:42.213Z,9.78
2019-03-05T06:03:10.777Z,11.30
2019-03-05T06:05:39.453Z,10.65
2019-03-05T06:08:08.043Z,11.70
2019-03-05T06:10:36.694Z,10.07
2019-03-05T06:13:05.413Z,9.60
2019-03-05T06:15:34.056Z,10.93
2019-03-05T06:18:02.640Z,10.90
2019-03-05T06:20:31.263Z,12.35
2019-03-05T06:23:00.155Z,10.60
2019-03-05T06:25:28.949Z,10.03
2019-03-05T06:27:57.578Z,10.38
2019-03-05T06:30:28.470Z,9.35
2019-03-05T06:32:57.017Z,9.70
2019-03-05T06:35:25.606Z,7.62
2019-03-05T06:37:54.162Z,12.15
2019-03-05T06:40:30.506Z,9.68
2019-03-05T06:42:59.158Z,10.95
2019-03-05T06:45:27.907Z,10.40
2019-03-05T06:47:56.684Z,13.93
2019-03-05T06:50:27.214Z,9.58
2019-03-05T06:52:56.119Z,8.95
2019-03-05T06:55:24.904Z,9.90
2019-03-05T06:57:53.560Z,8.78
2019-03-05T07:00:25.758Z,12.05
2019-03-05T07:02:54.633Z,10.03
2019-03-05T07:05:59.737Z,9.83
2019-03-05T07:08:28.754Z,9.28
2019-03-05T07:11:06.266Z,11.57
2019-03-05T07:13:35.078Z,7.60
2019-03-05T07:16:06.613Z,8.98
2019-03-05T07:18:38.466Z,6.80
2019-03-05T07:21:32.571Z,7.40
2019-03-05T07:24:16.364Z,6.07
2019-03-05T07:26:45.065Z,6.47
2019-03-05T07:29:13.683Z,6.73
2019-03-05T07:31:42.230Z,9.08
2019-03-05T07:34:12.505Z,10.68
2019-03-05T07:36:41.023Z,7.75
2019-03-05T07:39:12.581Z,8.63
2019-03-05T07:41:41.100Z,10.28
2019-03-05T07:44:09.642Z,7.85
2019-03-05T07:46:38.162Z,6.40
2019-03-05T07:49:06.702Z,6.45
2019-03-05T07:51:35.290Z,5.72
2019-03-05T07:54:03.902Z,5.70
2019-03-05T07:56:32.493Z,5.53
2019-03-05T07:59:01.122Z,6.00
2019-03-05T08:01:29.782Z,6.17
2019-03-05T08:03:58.379Z,6.20
2019-03-05T08:06:26.840Z,5.28
2019-03-05T08:09:29.636Z,5.37
2019-03-05T08:12:10.205Z,4.62
2019-03-05T08:14:41.737Z,6.25
2019-03-05T08:17:10.253Z,6.07
2019-03-05T08:19:38.874Z,7.35
2019-03-05T08:22:08.943Z,4.95
2019-03-05T08:24:37.444Z,5.78
2019-03-05T08:27:06.065Z,7.22
2019-03-05T08:29:34.713Z,6.40
2019-03-05T08:32:03.401Z,6.40
2019-03-05T08:34:31.930Z,8.48
2019-03-05T08:37:00.493Z,8.63
2019-03-05T08:39:29.115Z,7.58
2019-03-05T08:41:57.735Z,8.23
2019-03-05T08:44:26.356Z,8.50
2019-03-05T08:46:54.999Z,8.65
2019-03-05T08:49:23.598Z,9.88
2019-03-05T08:51:52.119Z,11.55
2019-03-05T08:54:20.634Z,10.43
2019-03-05T08:56:49.263Z,10.40
2019-03-05T08:59:17.908Z,9.93
2019-03-05T09:01:46.432Z,10.25
2019-03-05T09:04:16.877Z,9.87
2019-03-05T09:06:45.496Z,10.60
2019-03-05T09:09:16.694Z,10.32
2019-03-05T09:11:45.290Z,10.45
2019-03-05T09:14:13.939Z,11.33
2019-03-05T09:16:42.537Z,10.90
2019-03-05T09:19:11.268Z,10.82
2019-03-05T09:21:40.063Z,9.95
2019-03-05T09:24:08.696Z,10.63
2019-03-05T09:26:37.289Z,11.37
2019-03-05T09:29:05.911Z,10.10
2019-03-05T09:31:34.550Z,11.55
2019-03-05T09:34:03.192Z,11.00
2019-03-05T09:36:31.796Z,12.30
2019-03-05T09:39:00.347Z,10.88
2019-03-05T09:41:28.942Z,10.00
2019-03-05T09:43:57.467Z,12.43
2019-03-05T09:46:26.119Z,11.70
2019-03-05T09:48:54.642Z,10.43
2019-03-05T09:51:23.165Z,10.53
2019-03-05T09:53:51.799Z,9.03
2019-03-05T09:56:20.318Z,9.35
2019-03-05T09:58:48.906Z,9.60
2019-03-05T10:01:17.508Z,12.50
2019-03-05T10:03:46.101Z,12.03
2019-03-05T10:06:14.742Z,10.35
2019-03-05T10:08:43.406Z,10.63
2019-03-05T10:11:12.433Z,10.20
2019-03-05T10:13:41.051Z,7.47
2019-03-05T10:16:09.758Z,7.03
2019-03-05T10:18:39.338Z,10.60
2019-03-05T10:21:08.095Z,11.15
2019-03-05T10:23:36.726Z,10.03
2019-03-05T10:26:05.423Z,10.00
2019-03-05T10:28:35.014Z,10.98
2019-03-05T10:31:03.993Z,7.05
2019-03-05T10:33:32.597Z,6.37
2019-03-05T10:36:01.125Z,8.40
2019-03-05T10:38:29.811Z,8.88
2019-03-05T10:41:00.903Z,8.15
2019-03-05T10:43:29.491Z,7.85
2019-03-05T10:45:58.252Z,7.47
2019-03-05T10:48:26.904Z,7.33
2019-03-05T10:50:55.712Z,8.00
2019-03-05T10:53:24.464Z,10.55
2019-03-05T10:55:53.354Z,9.28
2019-03-05T10:58:32.825Z,10.15
2019-03-05T11:00:54.186Z,9.53
2019-03-05T11:03:25.279Z,7.10
2019-03-05T11:05:54.180Z,6.95
2019-03-05T11:08:24.649Z,8.35
2019-03-05T11:10:54.172Z,9.65
2019-03-05T11:13:22.795Z,7.00
2019-03-05T11:15:56.742Z,6.78
2019-03-05T11:18:29.312Z,10.30
2019-03-05T11:20:55.668Z,9.78
2019-03-05T11:23:24.331Z,11.33
2019-03-05T11:25:52.850Z,11.63
2019-03-05T11:28:21.472Z,11.13
2019-03-05T11:30:50.266Z,9.45
2019-03-05T11:33:18.952Z,11.75
2019-03-05T11:35:47.543Z,8.35
2019-03-05T11:38:16.172Z,13.28
2019-03-05T11:40:44.933Z,6.40
2019-03-05T11:43:15.866Z,9.08
2019-03-05T11:45:44.926Z,6.63
2019-03-05T11:48:14.513Z,7.62
2019-03-05T11:50:43.320Z,6.90
2019-03-05T11:53:11.934Z,6.50
2019-03-05T11:55:40.523Z,8.33
2019-03-05T11:58:09.117Z,7.17
2019-03-05T12:00:39.483Z,9.63
2019-03-05T12:03:08.076Z,8.15
2019-03-05T12:05:36.722Z,6.85
2019-03-05T12:08:05.307Z,6.55
2019-03-05T12:10:33.934Z,6.70
2019-03-05T12:13:02.600Z,7.75
2019-03-05T12:15:33.594Z,6.80
2019-03-05T12:18:02.182Z,9.03
2019-03-05T12:20:30.781Z,9.23
2019-03-05T12:22:59.408Z,7.92
2019-03-05T12:25:27.998Z,6.53
2019-03-05T12:27:56.609Z,10.93
2019-03-05T12:30:27.132Z,8.03
2019-03-05T12:32:55.769Z,9.28
2019-03-05T12:35:24.367Z,6.40
2019-03-05T12:37:52.991Z,9.55
2019-03-05T12:40:22.979Z,9.60
2019-03-05T12:42:51.816Z,5.35
2019-03-05T12:45:21.811Z,10.48
2019-03-05T12:47:50.400Z,6.10
2019-03-05T12:50:30.733Z,5.50
2019-03-05T12:52:59.325Z,6.47
2019-03-05T12:55:28.128Z,4.85
2019-03-05T12:57:56.832Z,8.58
2019-03-05T13:00:28.210Z,5.40
2019-03-05T13:02:57.323Z,5.05
2019-03-05T13:05:26.019Z,7.62
2019-03-05T13:07:56.436Z,4.72
2019-03-05T13:10:37.322Z,6.33
2019-03-05T13:13:05.438Z,5.80
2019-03-05T13:15:36.366Z,8.28
2019-03-05T13:18:05.252Z,6.37
2019-03-05T13:20:33.870Z,4.70
2019-03-05T13:23:08.884Z,4.70
2019-03-05T13:25:33.132Z,5.58
2019-03-05T13:28:03.766Z,5.00
2019-03-05T13:30:34.951Z,9.05
2019-03-05T13:33:03.586Z,6.80
2019-03-05T13:35:32.421Z,7.42
2019-03-05T13:38:09.374Z,7.47
2019-03-05T13:40:38.557Z,7.00
2019-03-05T13:43:07.654Z,6.63
2019-03-05T13:45:36.286Z,5.25
2019-03-05T13:48:14.747Z,5.50
2019-03-05T13:50:58.321Z,6.77
2019-03-05T13:53:35.666Z,10.45
2019-03-05T13:56:13.305Z,7.00
2019-03-05T13:59:07.610Z,6.62
2019-03-05T14:01:36.352Z,7.23
2019-03-05T14:04:07.856Z,4.53
2019-03-05T14:06:56.065Z,8.18
2019-03-05T14:09:23.402Z,5.70
2019-03-05T14:11:52.229Z,8.73
2019-03-05T14:14:27.516Z,6.33
2019-03-05T14:17:00.888Z,6.83
2019-03-05T14:19:29.498Z,5.47
2019-03-05T14:21:58.087Z,6.22
2019-03-05T14:24:26.674Z,6.35
2019-03-05T14:26:55.255Z,5.17
2019-03-05T14:29:23.813Z,4.53
2019-03-05T14:31:52.411Z,4.62
2019-03-05T14:34:21.035Z,5.30
2019-03-05T14:36:49.613Z,4.87
2019-03-05T14:39:25.821Z,9.00
2019-03-05T14:41:55.070Z,6.90
2019-03-05T14:44:23.855Z,6.97
2019-03-05T14:47:00.953Z,5.17
2019-03-05T14:49:29.565Z,8.88
2019-03-05T14:51:58.175Z,4.33
2019-03-05T14:54:26.748Z,6.28
2019-03-05T14:56:55.363Z,3.98
2019-03-05T14:59:24.111Z,6.03
2019-03-05T15:01:53.169Z,5.15
2019-03-05T15:04:21.824Z,9.30
2019-03-05T15:06:51.164Z,7.22
2019-03-05T15:09:20.165Z,5.15
2019-03-05T15:11:48.804Z,7.53
2019-03-05T15:14:17.388Z,6.22
2019-03-05T15:16:46.083Z,6.37
2019-03-05T15:19:21.490Z,5.30
2019-03-05T15:21:45.316Z,4.47
2019-03-05T15:24:13.898Z,7.50
2019-03-05T15:26:42.541Z,5.87
2019-03-05T15:29:11.150Z,5.83
2019-03-05T15:31:39.783Z,6.53
2019-03-05T15:34:08.347Z,7.45
2019-03-05T15:36:36.994Z,6.53
2019-03-05T15:39:06.535Z,6.37
2019-03-05T15:41:35.249Z,4.40
2019-03-05T15:44:03.920Z,6.70
2019-03-05T15:46:32.643Z,6.60
2019-03-05T15:49:01.283Z,8.65
2019-03-05T15:51:29.908Z,4.83
2019-03-05T15:53:58.651Z,6.40
2019-03-05T15:56:27.378Z,7.67
2019-03-05T15:58:56.019Z,6.50
2019-03-05T16:01:24.675Z,6.15
2019-03-05T16:03:53.368Z,8.63
2019-03-05T16:06:21.959Z,6.60
2019-03-05T16:08:50.868Z,7.62
2019-03-05T16:11:19.457Z,5.47
2019-03-05T16:13:48.273Z,6.45
2019-03-05T16:16:18.408Z,6.25
2019-03-05T16:18:47.456Z,9.15
2019-03-05T16:21:16.072Z,7.92
2019-03-05T16:23:44.809Z,9.53
2019-03-05T16:26:15.476Z,5.97
2019-03-05T16:28:45.103Z,8.73
2019-03-05T16:31:15.472Z,5.85
2019-03-05T16:33:49.376Z,5.45
2019-03-05T16:36:31.787Z,4.93
2019-03-05T16:39:14.505Z,5.83
2019-03-05T16:41:44.819Z,6.17
2019-03-05T16:44:21.509Z,7.08
2019-03-05T16:46:51.904Z,9.83
2019-03-05T16:49:38.692Z,9.50
2019-03-05T16:52:09.031Z,8.65
2019-03-05T16:54:39.439Z,8.53
2019-03-05T16:57:09.940Z,7.37
2019-03-05T16:59:58.985Z,9.00
2019-03-05T17:02:32.055Z,8.78
2019-03-05T17:05:18.474Z,7.53
2019-03-05T17:07:48.899Z,10.32
2019-03-05T17:10:22.276Z,14.58
2019-03-05T17:12:51.183Z,8.27
2019-03-05T17:15:19.973Z,6.50
2019-03-05T17:17:49.164Z,9.63
2019-03-05T17:20:17.905Z,8.30
2019-03-05T17:22:46.744Z,12.13
2019-03-05T17:25:18.296Z,6.87
2019-03-05T17:27:47.091Z,6.12
2019-03-05T17:30:17.361Z,10.08
2019-03-05T17:32:46.812Z,6.03
2019-03-05T17:35:16.627Z,9.83
2019-03-05T17:37:45.670Z,10.20
2019-03-05T17:40:15.456Z,8.97
2019-03-05T17:42:44.403Z,9.50
2019-03-05T17:45:27.032Z,16.50
2019-03-05T17:47:56.126Z,9.98
2019-03-05T17:50:24.864Z,8.63
2019-03-05T17:52:53.700Z,8.63
2019-03-05T17:55:27.446Z,7.10
2019-03-05T17:57:56.622Z,7.17
2019-03-05T18:00:26.943Z,11.68
2019-03-05T18:02:55.913Z,8.70
2019-03-05T18:05:24.699Z,9.58
2019-03-05T18:07:53.489Z,6.65
2019-03-05T18:10:22.484Z,7.03
2019-03-05T18:12:51.273Z,10.38
2019-03-05T18:15:20.159Z,8.00
2019-03-05T18:17:50.869Z,14.05
2019-03-05T18:20:22.140Z,8.45
2019-03-05T18:22:51.255Z,6.85
2019-03-05T18:25:22.154Z,9.83
2019-03-05T18:27:51.064Z,10.25
2019-03-05T18:30:24.967Z,10.70
2019-03-05T18:35:23.359Z,15.48
2019-03-05T18:37:52.150Z,11.43
2019-03-05T18:40:24.755Z,14.15
2019-03-05T18:42:56.127Z,13.38
2019-03-05T18:45:29.954Z,9.07
2019-03-05T18:48:00.920Z,9.20
2019-03-05T18:50:31.159Z,9.48
2019-03-05T18:53:05.585Z,7.80
2019-03-05T18:55:36.987Z,10.72
2019-03-05T18:58:08.561Z,11.80
2019-03-05T19:00:43.832Z,11.45
2019-03-05T19:03:16.875Z,10.72
2019-03-05T19:05:45.678Z,8.90
2019-03-05T19:08:17.636Z,11.63
2019-03-05T19:10:47.035Z,8.63
2019-03-05T19:13:17.415Z,8.45
2019-03-05T19:15:48.303Z,11.55
2019-03-05T19:18:25.517Z,7.33
2019-03-05T19:20:54.683Z,10.30
2019-03-05T19:23:23.568Z,11.60
2019-03-05T19:25:54.252Z,9.03
2019-03-05T19:28:23.090Z,8.78
2019-03-05T19:30:56.149Z,13.53
2019-03-05T19:33:26.498Z,9.90
2019-03-05T19:35:56.851Z,8.85
2019-03-05T19:38:27.455Z,12.88
2019-03-05T19:40:58.568Z,9.15
2019-03-05T19:43:29.738Z,10.20
2019-03-05T19:46:00.062Z,8.73
2019-03-05T19:48:28.993Z,8.88
2019-03-05T19:50:59.190Z,10.28
2019-03-05T19:53:28.215Z,7.83
2019-03-05T19:55:57.138Z,11.33
2019-03-05T19:58:27.626Z,10.95
2019-03-05T20:00:58.002Z,11.35
2019-03-05T20:03:26.808Z,10.20
2019-03-05T20:05:55.578Z,8.73
2019-03-05T20:08:24.471Z,10.43
2019-03-05T20:10:53.260Z,8.75
2019-03-05T20:13:23.234Z,13.32
2019-03-05T20:15:52.060Z,15.03
2019-03-05T20:18:20.853Z,9.95
2019-03-05T20:20:49.637Z,9.83
2019-03-05T20:23:18.525Z,9.33
2019-03-05T20:25:47.518Z,10.75
2019-03-05T20:28:17.328Z,7.40
2019-03-05T20:30:46.634Z,10.00
2019-03-05T20:33:15.414Z,9.80
2019-03-05T20:35:44.616Z,10.93
2019-03-05T20:38:13.403Z,10.43
2019-03-05T20:40:42.190Z,7.97
2019-03-05T20:43:10.966Z,7.80
2019-03-05T20:45:45.501Z,7.15
2019-03-05T20:48:17.900Z,9.85
2019-03-05T20:50:49.124Z,10.97
2019-03-05T20:53:17.901Z,9.03
2019-03-05T20:55:46.689Z,7.70
2019-03-05T20:58:15.576Z,9.60
2019-03-05T21:00:44.894Z,10.37
2019-03-05T21:03:14.680Z,9.80
2019-03-05T21:05:45.962Z,9.18
2019-03-05T21:08:14.824Z,8.73
2019-03-05T21:10:43.700Z,12.47
2019-03-05T21:13:12.616Z,13.18
2019-03-05T21:15:41.500Z,10.57
2019-03-05T21:18:15.141Z,11.28
2019-03-05T21:20:43.985Z,11.50
2019-03-05T21:23:14.845Z,8.68
2019-03-05T21:25:43.607Z,7.97
2019-03-05T21:28:12.495Z,11.90
2019-03-05T21:30:41.489Z,15.00
2019-03-05T21:33:10.386Z,9.90
2019-03-05T21:35:39.578Z,7.75
2019-03-05T21:38:08.470Z,10.45
2019-03-05T21:40:39.473Z,8.40
2019-03-05T21:43:08.101Z,7.25
2019-03-05T21:45:39.788Z,11.25
2019-03-05T21:48:08.938Z,14.30
2019-03-05T21:50:37.715Z,10.47
2019-03-05T21:53:07.222Z,10.43
2019-03-05T21:55:36.324Z,9.43
2019-03-05T21:58:05.425Z,9.03
2019-03-05T22:00:36.297Z,10.40
2019-03-05T22:03:06.788Z,12.77
2019-03-05T22:05:35.390Z,9.17
2019-03-05T22:08:04.356Z,9.13
2019-03-05T22:10:33.316Z,9.70
2019-03-05T22:13:02.582Z,9.55
2019-03-05T22:15:32.908Z,11.53
2019-03-05T22:18:01.722Z,13.53
2019-03-05T22:20:30.521Z,9.05
2019-03-05T22:22:59.387Z,9.28
2019-03-05T22:25:29.081Z,10.05
2019-03-05T22:27:58.095Z,10.70
2019-03-05T22:30:34.902Z,12.60
2019-03-05T22:33:03.687Z,8.73
2019-03-05T22:35:32.295Z,7.10
2019-03-05T22:38:00.899Z,9.13
2019-03-05T22:40:30.054Z,10.32
2019-03-05T22:42:58.868Z,10.28
2019-03-05T22:45:32.117Z,10.23
2019-03-05T22:48:00.742Z,8.73
2019-03-05T22:50:29.337Z,11.73
2019-03-05T22:52:57.956Z,10.55
2019-03-05T22:55:26.699Z,11.20
2019-03-05T22:57:55.703Z,13.35
2019-03-05T23:00:37.868Z,7.53
2019-03-05T23:03:18.434Z,13.75
2019-03-05T23:05:47.126Z,9.47
2019-03-05T23:08:15.717Z,8.35
2019-03-05T23:10:44.313Z,7.70
2019-03-05T23:13:13.517Z,11.80
2019-03-05T23:15:42.082Z,8.70
2019-03-05T23:18:10.673Z,11.15
2019-03-05T23:20:39.575Z,9.70
2019-03-05T23:23:08.291Z,10.18
2019-03-05T23:25:36.964Z,9.65
2019-03-05T23:28:06.694Z,12.30
2019-03-05T23:30:35.594Z,9.95
2019-03-05T23:33:04.364Z,9.75
2019-03-05T23:35:33.078Z,10.53
2019-03-05T23:38:01.782Z,10.48
2019-03-05T23:40:30.593Z,8.25
2019-03-05T23:42:59.265Z,10.63
2019-03-05T23:45:27.938Z,11.35
2019-03-05T23:47:56.715Z,12.07
2019-03-05T23:50:25.329Z,11.38
2019-03-05T23:52:53.932Z,6.27
2019-03-05T23:55:22.541Z,12.33
2019-03-05T23:57:51.301Z,8.38
